createdAt,value
2018-07-14T00:00:37.837Z,0.00
2018-07-14T00:01:37.853Z,0.00
2018-07-14T00:02:37.859Z,0.00
2018-07-14T00:03:37.877Z,0.00
2018-07-14T00:04:37.886Z,0.00
2018-07-14T00:05:37.896Z,0.00
2018-07-14T00:06:37.912Z,0.00
2018-07-14T00:07:37.925Z,0.00
2018-07-14T00:08:37.933Z,0.00
2018-07-14T00:09:37.948Z,0.00
2018-07-14T00:10:37.953Z,0.00
2018-07-14T00:11:37.969Z,0.00
2018-07-14T00:12:37.976Z,0.00
2018-07-14T00:13:37.991Z,0.00
2018-07-14T00:14:38.006Z,0.00
2018-07-14T00:15:38.006Z,0.00
2018-07-14T00:16:38.037Z,0.00
2018-07-14T00:17:38.042Z,0.00
2018-07-14T00:18:38.051Z,0.00
2018-07-14T00:19:38.066Z,0.00
2018-07-14T00:20:38.080Z,0.00
2018-07-14T00:21:38.083Z,0.00
2018-07-14T00:22:38.099Z,0.00
2018-07-14T00:23:38.112Z,0.00
2018-07-14T00:24:38.137Z,0.00
2018-07-14T00:25:38.130Z,0.00
2018-07-14T00:26:38.143Z,0.00
2018-07-14T00:27:38.153Z,0.00
2018-07-14T00:28:38.165Z,0.00
2018-07-14T00:29:38.178Z,0.00
2018-07-14T00:30:38.186Z,0.00
2018-07-14T00:31:38.196Z,0.00
2018-07-14T00:32:38.208Z,0.00
2018-07-14T00:33:38.219Z,0.00
2018-07-14T00:34:38.243Z,0.00
2018-07-14T00:35:38.247Z,0.00
2018-07-14T00:36:38.258Z,0.00
2018-07-14T00:37:38.262Z,0.00
2018-07-14T00:38:38.282Z,0.00
2018-07-14T00:39:38.293Z,0.00
2018-07-14T00:40:38.301Z,0.00
2018-07-14T00:41:38.314Z,0.00
2018-07-14T00:42:38.324Z,0.00
2018-07-14T00:43:38.335Z,0.00
2018-07-14T00:44:38.346Z,0.00
2018-07-14T00:45:38.353Z,0.00
2018-07-14T00:46:38.372Z,0.00
2018-07-14T00:47:38.383Z,0.00
2018-07-14T00:48:38.396Z,0.00
2018-07-14T00:49:38.404Z,0.00
2018-07-14T00:50:38.422Z,0.00
2018-07-14T00:51:38.426Z,0.00
2018-07-14T00:52:38.449Z,0.00
2018-07-14T00:53:38.449Z,0.00
2018-07-14T00:54:38.463Z,0.00
2018-07-14T00:55:38.472Z,0.00
2018-07-14T00:56:38.484Z,0.00
2018-07-14T00:57:38.502Z,0.00
2018-07-14T00:58:38.518Z,0.00
2018-07-14T00:59:38.523Z,0.00
2018-07-14T01:00:38.539Z,0.00
2018-07-14T01:01:38.549Z,0.00
2018-07-14T01:02:38.549Z,0.00
2018-07-14T01:03:38.568Z,0.00
2018-07-14T01:04:38.584Z,0.00
2018-07-14T01:05:38.588Z,0.00
2018-07-14T01:06:38.599Z,0.00
2018-07-14T01:08:38.627Z,0.00
2018-07-14T01:09:38.636Z,0.00
2018-07-14T01:10:38.640Z,0.00
2018-07-14T01:11:38.655Z,0.00
2018-07-14T01:12:38.666Z,0.00
2018-07-14T01:13:38.676Z,0.00
2018-07-14T01:14:38.690Z,0.00
2018-07-14T01:15:38.704Z,0.00
2018-07-14T01:16:38.715Z,0.00
2018-07-14T01:17:38.752Z,0.00
2018-07-14T01:18:38.738Z,0.00
2018-07-14T01:19:38.745Z,0.00
2018-07-14T01:20:38.756Z,0.00
2018-07-14T01:21:38.770Z,0.00
2018-07-14T01:22:38.779Z,0.00
2018-07-14T01:23:38.793Z,0.00
2018-07-14T01:24:38.803Z,0.00
2018-07-14T01:25:38.815Z,0.00
2018-07-14T01:26:38.827Z,0.00
2018-07-14T01:27:38.843Z,0.00
2018-07-14T01:28:38.853Z,0.00
2018-07-14T01:29:38.857Z,0.00
2018-07-14T01:30:38.875Z,0.00
2018-07-14T01:31:38.876Z,0.00
2018-07-14T01:32:38.887Z,0.00
2018-07-14T01:33:38.904Z,0.00
2018-07-14T01:34:38.927Z,0.00
2018-07-14T01:35:38.928Z,0.00
2018-07-14T01:36:38.939Z,0.00
2018-07-14T01:37:38.947Z,0.00
2018-07-14T01:38:38.955Z,0.00
2018-07-14T01:39:38.971Z,0.00
2018-07-14T01:40:39.001Z,0.00
2018-07-14T01:41:38.991Z,0.00
2018-07-14T01:42:39.000Z,0.00
2018-07-14T01:43:39.008Z,0.00
2018-07-14T01:44:39.023Z,0.00
2018-07-14T01:45:39.033Z,0.00
2018-07-14T01:46:39.055Z,0.00
2018-07-14T01:47:39.056Z,0.00
2018-07-14T01:48:39.069Z,0.00
2018-07-14T01:49:39.078Z,0.00
2018-07-14T01:51:39.111Z,0.00
2018-07-14T01:52:39.126Z,0.00
2018-07-14T01:53:39.126Z,0.00
2018-07-14T01:54:39.135Z,0.00
2018-07-14T01:55:39.145Z,0.00
2018-07-14T01:56:39.155Z,0.00
2018-07-14T01:57:39.164Z,0.00
2018-07-14T01:58:39.177Z,0.00
2018-07-14T01:59:39.187Z,0.00
2018-07-14T02:00:39.193Z,0.00
2018-07-14T02:01:39.216Z,0.00
2018-07-14T02:02:39.225Z,0.00
2018-07-14T02:03:39.233Z,0.00
2018-07-14T02:04:39.243Z,0.00
2018-07-14T02:05:39.248Z,0.00
2018-07-14T02:06:39.265Z,0.00
2018-07-14T02:07:39.272Z,0.00
2018-07-14T02:08:39.281Z,0.00
2018-07-14T02:09:39.307Z,0.00
2018-07-14T02:10:39.311Z,0.00
2018-07-14T02:11:39.318Z,0.00
2018-07-14T02:12:39.335Z,0.00
2018-07-14T02:13:39.343Z,0.00
2018-07-14T02:14:39.363Z,0.00
2018-07-14T02:15:39.370Z,0.00
2018-07-14T02:16:39.377Z,0.00
2018-07-14T02:17:39.387Z,0.00
2018-07-14T02:18:39.389Z,0.00
2018-07-14T02:19:39.407Z,0.00
2018-07-14T02:20:39.417Z,0.00
2018-07-14T02:21:39.439Z,0.00
2018-07-14T02:22:39.456Z,0.00
2018-07-14T02:23:39.449Z,0.00
2018-07-14T02:24:39.461Z,0.00
2018-07-14T02:25:39.474Z,0.00
2018-07-14T02:26:39.483Z,0.00
2018-07-14T02:27:39.496Z,0.00
2018-07-14T02:29:39.509Z,0.00
2018-07-14T02:30:39.529Z,0.00
2018-07-14T02:31:39.534Z,0.00
2018-07-14T02:32:39.550Z,0.00
2018-07-14T02:33:39.557Z,0.00
2018-07-14T02:34:39.570Z,0.00
2018-07-14T02:35:39.583Z,0.00
2018-07-14T02:36:39.596Z,0.00
2018-07-14T02:37:39.602Z,0.00
2018-07-14T02:38:39.624Z,0.00
2018-07-14T02:39:39.630Z,0.00
2018-07-14T02:40:39.632Z,0.00
2018-07-14T02:41:39.639Z,0.00
2018-07-14T02:42:39.651Z,0.00
2018-07-14T02:43:39.674Z,0.00
2018-07-14T02:44:39.678Z,0.00
2018-07-14T02:45:39.694Z,0.00
2018-07-14T02:46:39.710Z,0.00
2018-07-14T02:47:39.708Z,0.00
2018-07-14T02:48:39.725Z,0.00
2018-07-14T02:49:39.735Z,0.00
2018-07-14T02:50:39.749Z,0.00
2018-07-14T02:51:39.757Z,0.00
2018-07-14T02:53:39.774Z,0.00
2018-07-14T02:54:39.784Z,0.00
2018-07-14T02:55:39.798Z,0.00
2018-07-14T02:56:39.808Z,0.00
2018-07-14T02:57:39.815Z,0.00
2018-07-14T02:58:39.838Z,0.00
2018-07-14T02:59:39.870Z,0.00
2018-07-14T03:00:39.857Z,0.00
2018-07-14T03:01:39.870Z,0.00
2018-07-14T03:02:39.869Z,0.00
2018-07-14T03:03:39.884Z,0.00
2018-07-14T03:04:39.897Z,0.00
2018-07-14T03:05:39.908Z,0.00
2018-07-14T03:06:39.916Z,0.00
2018-07-14T03:07:39.927Z,0.00
2018-07-14T03:08:39.941Z,0.00
2018-07-14T03:09:39.942Z,0.00
2018-07-14T03:10:39.954Z,0.00
2018-07-14T03:11:39.969Z,0.00
2018-07-14T03:13:39.993Z,0.00
2018-07-14T03:14:40.007Z,0.00
2018-07-14T03:15:40.015Z,0.00
2018-07-14T03:16:40.026Z,0.00
2018-07-14T03:17:40.045Z,0.00
2018-07-14T03:18:40.054Z,0.00
2018-07-14T03:19:40.054Z,5.63
2018-07-14T03:20:40.069Z,5.63
2018-07-14T03:21:40.083Z,5.63
2018-07-14T03:22:40.093Z,5.63
2018-07-14T03:23:40.105Z,5.63
2018-07-14T03:24:40.106Z,5.63
2018-07-14T03:25:40.137Z,5.63
2018-07-14T03:26:40.135Z,5.63
2018-07-14T03:28:40.162Z,5.63
2018-07-14T03:30:40.176Z,11.25
2018-07-14T03:32:40.202Z,11.25
2018-07-14T03:33:40.216Z,11.25
2018-07-14T03:34:40.215Z,11.25
2018-07-14T03:35:40.245Z,11.25
2018-07-14T03:36:40.238Z,11.25
2018-07-14T03:37:40.255Z,11.25
2018-07-14T03:38:40.252Z,11.25
2018-07-14T03:39:40.271Z,11.25
2018-07-14T03:40:40.280Z,16.88
2018-07-14T03:41:40.293Z,16.88
2018-07-14T03:42:40.310Z,16.88
2018-07-14T03:43:40.317Z,16.88
2018-07-14T03:44:40.334Z,16.88
2018-07-14T03:45:40.346Z,22.50
2018-07-14T03:46:40.366Z,22.50
2018-07-14T03:47:40.354Z,22.50
2018-07-14T03:49:40.384Z,22.50
2018-07-14T03:50:40.387Z,22.50
2018-07-14T03:51:40.396Z,28.13
2018-07-14T03:53:40.416Z,28.13
2018-07-14T03:54:40.435Z,28.13
2018-07-14T03:56:40.451Z,28.13
2018-07-14T03:57:40.473Z,33.75
2018-07-14T03:58:40.472Z,33.75
2018-07-14T03:59:40.488Z,33.75
2018-07-14T04:00:40.492Z,33.75
2018-07-14T04:01:40.514Z,33.75
2018-07-14T04:02:40.516Z,39.38
2018-07-14T04:03:40.529Z,39.38
2018-07-14T04:04:40.540Z,39.38
2018-07-14T04:05:40.549Z,39.38
2018-07-14T04:06:40.562Z,45.00
2018-07-14T04:07:40.570Z,45.00
2018-07-14T04:08:40.585Z,50.63
2018-07-14T04:09:40.602Z,50.63
2018-07-14T04:12:02.382Z,50.63
2018-07-14T04:22:44.286Z,78.75
2018-07-14T04:23:44.291Z,78.75
2018-07-14T04:24:44.305Z,84.38
2018-07-14T04:25:44.316Z,84.38
2018-07-14T04:26:44.334Z,84.38
2018-07-14T04:27:44.342Z,84.38
2018-07-14T04:28:44.350Z,84.38
2018-07-14T04:29:44.366Z,90.00
2018-07-14T04:31:44.392Z,90.00
2018-07-14T04:32:44.393Z,95.63
2018-07-14T04:33:44.406Z,95.63
2018-07-14T04:34:44.414Z,95.63
2018-07-14T04:35:44.431Z,101.25
2018-07-14T04:36:44.446Z,95.63
2018-07-14T04:37:44.452Z,101.25
2018-07-14T04:38:44.459Z,101.25
2018-07-14T04:39:44.516Z,101.25
2018-07-14T04:40:44.483Z,101.25
2018-07-14T04:41:44.491Z,106.88
2018-07-14T04:42:44.509Z,106.88
2018-07-14T04:43:44.515Z,118.13
2018-07-14T04:44:44.521Z,112.50
2018-07-14T04:45:44.536Z,118.13
2018-07-14T04:46:44.551Z,123.75
2018-07-14T04:47:44.556Z,123.75
2018-07-14T04:48:44.581Z,123.75
2018-07-14T04:49:44.580Z,118.13
2018-07-14T04:50:44.593Z,123.75
2018-07-14T04:51:44.600Z,123.75
2018-07-14T04:52:44.611Z,129.38
2018-07-14T04:53:44.623Z,129.38
2018-07-14T04:54:44.639Z,129.38
2018-07-14T04:55:44.657Z,135.00
2018-07-14T04:56:44.659Z,140.63
2018-07-14T04:57:44.665Z,151.88
2018-07-14T04:58:44.681Z,157.50
2018-07-14T04:59:44.688Z,157.50
2018-07-14T05:00:44.705Z,163.13
2018-07-14T05:01:44.711Z,163.13
2018-07-14T05:02:44.721Z,163.13
2018-07-14T05:03:44.743Z,163.13
2018-07-14T05:04:44.744Z,168.75
2018-07-14T05:05:44.754Z,168.75
2018-07-14T05:06:44.770Z,168.75
2018-07-14T05:07:44.786Z,174.38
2018-07-14T05:08:44.841Z,174.38
2018-07-14T05:09:44.791Z,180.00
2018-07-14T05:10:44.810Z,185.63
2018-07-14T05:11:44.821Z,185.63
2018-07-14T05:12:44.836Z,185.63
2018-07-14T05:13:44.845Z,191.25
2018-07-14T05:14:44.853Z,191.25
2018-07-14T05:15:44.868Z,191.25
2018-07-14T05:16:44.881Z,196.88
2018-07-14T05:17:44.895Z,196.88
2018-07-14T05:18:44.906Z,196.88
2018-07-14T05:19:44.917Z,196.88
2018-07-14T05:20:44.925Z,202.50
2018-07-14T05:21:44.938Z,208.13
2018-07-14T05:22:44.954Z,208.13
2018-07-14T05:23:44.957Z,208.13
2018-07-14T05:24:44.970Z,208.13
2018-07-14T05:25:44.976Z,213.75
2018-07-14T05:26:44.990Z,219.38
2018-07-14T05:27:45.004Z,219.38
2018-07-14T05:28:45.016Z,219.38
2018-07-14T05:29:45.034Z,219.38
2018-07-14T05:30:45.050Z,219.38
2018-07-14T05:31:45.050Z,219.38
2018-07-14T05:32:45.058Z,219.38
2018-07-14T05:33:45.067Z,225.00
2018-07-14T05:34:45.078Z,225.00
2018-07-14T05:35:45.100Z,230.63
2018-07-14T05:36:45.104Z,230.63
2018-07-14T05:37:45.125Z,230.63
2018-07-14T05:38:45.139Z,236.25
2018-07-14T05:39:45.133Z,236.25
2018-07-14T05:40:45.152Z,241.88
2018-07-14T05:41:45.179Z,241.88
2018-07-14T05:42:45.182Z,247.50
2018-07-14T05:43:45.193Z,247.50
2018-07-14T05:44:45.195Z,247.50
2018-07-14T05:45:45.212Z,253.13
2018-07-14T05:46:45.224Z,253.13
2018-07-14T05:47:45.231Z,253.13
2018-07-14T05:48:45.241Z,253.13
2018-07-14T05:49:45.263Z,253.13
2018-07-14T05:50:45.276Z,258.75
2018-07-14T05:51:45.275Z,264.38
2018-07-14T05:52:45.301Z,264.38
2018-07-14T05:53:45.311Z,258.75
2018-07-14T05:54:45.316Z,258.75
2018-07-14T05:55:45.328Z,286.88
2018-07-14T05:56:45.342Z,275.63
2018-07-14T05:57:45.349Z,275.63
2018-07-14T05:58:45.367Z,275.63
2018-07-14T05:59:45.376Z,275.63
2018-07-14T06:00:45.390Z,275.63
2018-07-14T06:01:45.400Z,258.75
2018-07-14T06:03:45.424Z,281.25
2018-07-14T06:04:45.438Z,281.25
2018-07-14T06:05:45.448Z,281.25
2018-07-14T06:06:45.461Z,281.25
2018-07-14T06:07:45.508Z,292.50
2018-07-14T06:08:45.488Z,292.50
2018-07-14T06:09:45.502Z,298.13
2018-07-14T06:10:45.505Z,298.13
2018-07-14T06:11:45.520Z,303.75
2018-07-14T06:12:45.531Z,303.75
2018-07-14T06:13:45.540Z,303.75
2018-07-14T06:14:45.548Z,303.75
2018-07-14T06:15:45.571Z,309.38
2018-07-14T06:16:45.576Z,303.75
2018-07-14T06:17:45.597Z,315.00
2018-07-14T06:18:45.607Z,315.00
2018-07-14T06:19:45.618Z,320.63
2018-07-14T06:20:45.630Z,320.63
2018-07-14T06:21:45.643Z,326.25
2018-07-14T06:22:45.663Z,326.25
2018-07-14T06:23:45.669Z,326.25
2018-07-14T06:24:45.697Z,326.25
2018-07-14T06:25:45.692Z,331.88
2018-07-14T06:26:45.707Z,337.50
2018-07-14T06:27:45.716Z,348.75
2018-07-14T06:28:45.725Z,354.38
2018-07-14T06:29:45.747Z,365.63
2018-07-14T06:30:45.747Z,365.63
2018-07-14T06:31:45.770Z,371.25
2018-07-14T06:32:45.779Z,376.88
2018-07-14T06:33:45.793Z,376.88
2018-07-14T06:34:45.806Z,382.50
2018-07-14T06:35:45.830Z,388.13
2018-07-14T06:36:45.834Z,388.13
2018-07-14T06:37:45.851Z,388.13
2018-07-14T06:38:45.859Z,388.13
2018-07-14T06:39:45.872Z,388.13
2018-07-14T06:40:45.890Z,388.13
2018-07-14T06:41:45.923Z,393.75
2018-07-14T06:42:45.928Z,393.75
2018-07-14T06:43:45.988Z,405.00
2018-07-14T06:44:46.047Z,405.00
2018-07-14T06:45:46.105Z,410.63
2018-07-14T06:46:45.977Z,416.25
2018-07-14T06:47:46.202Z,410.63
2018-07-14T06:48:46.013Z,416.25
2018-07-14T06:49:46.181Z,416.25
2018-07-14T06:50:46.451Z,421.88
2018-07-14T06:51:46.396Z,427.50
2018-07-14T06:52:46.258Z,433.13
2018-07-14T06:53:46.140Z,433.13
2018-07-14T06:54:46.103Z,438.75
2018-07-14T06:55:46.113Z,438.75
2018-07-14T06:56:46.127Z,438.75
2018-07-14T06:57:46.137Z,444.38
2018-07-14T06:58:46.167Z,444.38
2018-07-14T06:59:46.167Z,466.88
2018-07-14T07:00:46.193Z,455.63
2018-07-14T07:01:46.214Z,461.25
2018-07-14T07:02:46.232Z,461.25
2018-07-14T07:03:46.250Z,466.88
2018-07-14T07:04:46.248Z,466.88
2018-07-14T07:05:46.537Z,466.88
2018-07-14T07:06:46.292Z,489.38
2018-07-14T07:07:46.307Z,489.38
2018-07-14T07:08:46.331Z,478.13
2018-07-14T07:09:46.342Z,483.75
2018-07-14T07:10:46.359Z,478.13
2018-07-14T07:11:46.383Z,489.38
2018-07-14T07:12:46.391Z,489.38
2018-07-14T07:13:46.493Z,495.00
2018-07-14T07:14:46.423Z,500.63
2018-07-14T07:15:46.439Z,506.25
2018-07-14T07:16:46.455Z,500.63
2018-07-14T07:17:46.473Z,511.88
2018-07-14T07:18:46.485Z,511.88
2018-07-14T07:19:46.504Z,517.50
2018-07-14T07:20:46.529Z,540.00
2018-07-14T07:21:46.541Z,523.13
2018-07-14T07:22:46.566Z,528.75
2018-07-14T07:23:46.574Z,528.75
2018-07-14T07:24:46.587Z,540.00
2018-07-14T07:25:46.609Z,545.63
2018-07-14T07:26:46.625Z,545.63
2018-07-14T07:27:46.638Z,545.63
2018-07-14T07:28:46.668Z,556.88
2018-07-14T07:29:46.683Z,556.88
2018-07-14T07:30:46.692Z,556.88
2018-07-14T07:31:46.720Z,573.75
2018-07-14T07:32:46.725Z,568.13
2018-07-14T07:33:46.742Z,573.75
2018-07-14T07:34:46.774Z,573.75
2018-07-14T07:35:46.777Z,534.38
2018-07-14T07:36:46.832Z,607.50
2018-07-14T07:37:46.812Z,607.50
2018-07-14T07:38:46.823Z,590.63
2018-07-14T07:39:46.845Z,596.25
2018-07-14T07:40:46.863Z,596.25
2018-07-14T07:41:46.890Z,613.13
2018-07-14T07:42:46.892Z,618.75
2018-07-14T07:43:46.916Z,613.13
2018-07-14T07:44:46.933Z,624.38
2018-07-14T07:45:46.956Z,624.38
2018-07-14T07:46:46.962Z,624.38
2018-07-14T07:47:46.990Z,630.00
2018-07-14T07:48:46.989Z,641.25
2018-07-14T07:49:47.015Z,641.25
2018-07-14T07:50:47.035Z,652.50
2018-07-14T07:51:47.054Z,658.13
2018-07-14T07:52:47.068Z,669.38
2018-07-14T07:53:47.092Z,675.00
2018-07-14T07:54:47.112Z,691.88
2018-07-14T07:55:47.146Z,686.25
2018-07-14T07:56:47.139Z,686.25
2018-07-14T07:57:47.157Z,703.13
2018-07-14T07:58:47.185Z,703.13
2018-07-14T07:59:47.200Z,714.38
2018-07-14T08:00:47.211Z,720.00
2018-07-14T08:01:47.226Z,731.25
2018-07-14T08:02:47.255Z,748.13
2018-07-14T08:03:47.265Z,770.63
2018-07-14T08:04:47.287Z,776.25
2018-07-14T08:05:47.295Z,781.88
2018-07-14T08:06:47.318Z,798.75
2018-07-14T08:07:47.345Z,821.25
2018-07-14T08:08:47.403Z,815.63
2018-07-14T08:09:47.403Z,821.25
2018-07-14T08:10:47.403Z,793.13
2018-07-14T08:11:47.409Z,860.63
2018-07-14T08:12:47.430Z,810.00
2018-07-14T08:13:47.448Z,894.38
2018-07-14T08:14:47.468Z,916.88
2018-07-14T08:15:47.483Z,916.88
2018-07-14T08:16:47.496Z,916.88
2018-07-14T08:17:47.524Z,945.00
2018-07-14T08:18:47.526Z,916.88
2018-07-14T08:19:47.550Z,939.38
2018-07-14T08:20:47.567Z,973.13
2018-07-14T08:21:47.581Z,967.50
2018-07-14T08:22:47.678Z,1023.75
2018-07-14T08:23:47.633Z,995.63
2018-07-14T08:24:47.660Z,1018.13
2018-07-14T08:25:47.669Z,1029.38
2018-07-14T08:26:47.678Z,1029.38
2018-07-14T08:27:47.698Z,1029.38
2018-07-14T08:28:47.718Z,1057.50
2018-07-14T08:29:47.723Z,1063.13
2018-07-14T08:30:47.762Z,1080.00
2018-07-14T08:31:47.769Z,1074.38
2018-07-14T08:32:47.790Z,1096.88
2018-07-14T08:33:47.822Z,1108.13
2018-07-14T08:34:47.824Z,1080.00
2018-07-14T08:35:47.842Z,1085.63
2018-07-14T08:36:47.867Z,1119.38
2018-07-14T08:37:47.868Z,1147.50
2018-07-14T08:38:47.892Z,1147.50
2018-07-14T08:39:47.911Z,1153.13
2018-07-14T08:40:47.952Z,1164.38
2018-07-14T08:41:47.949Z,1170.00
2018-07-14T08:42:47.980Z,1181.25
2018-07-14T08:43:48.024Z,1192.50
2018-07-14T08:44:48.018Z,1220.63
2018-07-14T08:45:48.030Z,1231.88
2018-07-14T08:46:48.055Z,1237.50
2018-07-14T08:47:48.057Z,1237.50
2018-07-14T08:48:48.081Z,1248.75
2018-07-14T08:50:48.119Z,1237.50
2018-07-14T08:51:48.136Z,1276.88
2018-07-14T08:52:48.156Z,1265.63
2018-07-14T08:53:48.188Z,1046.25
2018-07-14T08:54:48.195Z,1282.50
2018-07-14T08:55:48.206Z,1265.63
2018-07-14T08:56:48.233Z,1271.25
2018-07-14T08:57:48.258Z,1119.38
2018-07-14T08:58:48.266Z,1321.88
2018-07-14T08:59:48.282Z,1305.00
2018-07-14T09:00:48.302Z,1333.13
2018-07-14T09:01:48.318Z,1338.75
2018-07-14T09:02:48.340Z,1344.38
2018-07-14T09:03:48.363Z,1389.38
2018-07-14T09:04:48.369Z,1406.25
2018-07-14T09:05:48.405Z,1400.63
2018-07-14T09:06:48.422Z,1383.75
2018-07-14T09:07:48.474Z,1372.50
2018-07-14T09:08:48.453Z,1400.63
2018-07-14T09:09:48.477Z,1400.63
2018-07-14T09:10:48.503Z,1378.13
2018-07-14T09:11:48.524Z,1400.63
2018-07-14T09:12:48.527Z,1417.50
2018-07-14T09:13:48.548Z,1411.88
2018-07-14T09:14:48.584Z,1411.88
2018-07-14T09:15:48.592Z,1406.25
2018-07-14T09:16:48.603Z,1423.13
2018-07-14T09:17:48.628Z,1428.75
2018-07-14T09:18:48.640Z,1389.38
2018-07-14T09:19:48.655Z,1400.63
2018-07-14T09:20:48.678Z,1411.88
2018-07-14T09:21:48.694Z,1411.88
2018-07-14T09:22:48.721Z,1445.63
2018-07-14T09:23:48.740Z,1440.00
2018-07-14T09:24:48.763Z,1428.75
2018-07-14T09:26:48.802Z,1451.25
2018-07-14T09:27:48.814Z,1456.88
2018-07-14T09:28:48.839Z,1456.88
2018-07-14T09:29:48.853Z,1490.63
2018-07-14T09:30:48.878Z,1496.25
2018-07-14T09:31:48.898Z,1507.50
2018-07-14T09:32:48.910Z,1513.13
2018-07-14T09:33:48.927Z,1485.00
2018-07-14T09:34:48.969Z,1479.38
2018-07-14T09:35:48.966Z,1524.38
2018-07-14T09:36:48.987Z,1485.00
2018-07-14T09:37:49.050Z,1501.88
2018-07-14T09:38:49.031Z,1513.13
2018-07-14T09:39:49.060Z,1518.75
2018-07-14T09:40:49.070Z,1546.88
2018-07-14T09:41:49.086Z,1530.00
2018-07-14T09:42:49.107Z,1535.63
2018-07-14T09:43:49.127Z,1541.25
2018-07-14T09:44:49.148Z,1569.38
2018-07-14T09:45:49.165Z,1620.00
2018-07-14T09:46:49.187Z,1586.25
2018-07-14T09:47:49.297Z,1586.25
2018-07-14T09:48:49.229Z,1456.88
2018-07-14T09:49:49.239Z,961.88
2018-07-14T09:50:49.276Z,815.63
2018-07-14T09:51:49.291Z,990.00
2018-07-14T09:52:49.302Z,1445.63
2018-07-14T09:53:49.322Z,1541.25
2018-07-14T09:54:49.375Z,1546.88
2018-07-14T09:55:49.420Z,1603.13
2018-07-14T09:56:49.385Z,1614.38
2018-07-14T09:57:49.404Z,1665.00
2018-07-14T09:58:49.440Z,1721.25
2018-07-14T09:59:49.449Z,1693.13
2018-07-14T10:00:49.459Z,1636.88
2018-07-14T10:01:49.481Z,1648.13
2018-07-14T10:02:49.507Z,1648.13
2018-07-14T10:03:49.541Z,1653.75
2018-07-14T10:04:49.552Z,1665.00
2018-07-14T10:05:49.563Z,1659.38
2018-07-14T10:06:49.585Z,1631.25
2018-07-14T10:07:49.598Z,1631.25
2018-07-14T10:08:49.615Z,1636.88
2018-07-14T10:09:49.637Z,1631.25
2018-07-14T10:11:49.684Z,1665.00
2018-07-14T10:12:49.700Z,1653.75
2018-07-14T10:13:49.719Z,1670.63
2018-07-14T10:14:49.797Z,1462.50
2018-07-14T10:15:49.757Z,1653.75
2018-07-14T10:16:49.790Z,1614.38
2018-07-14T10:17:49.925Z,1473.75
2018-07-14T10:18:49.829Z,1546.88
2018-07-14T10:19:49.871Z,1530.00
2018-07-14T10:20:49.859Z,1141.88
2018-07-14T10:21:49.881Z,1063.13
2018-07-14T10:22:49.899Z,1203.75
2018-07-14T10:23:49.921Z,1586.25
2018-07-14T10:24:50.768Z,1726.88
2018-07-14T10:25:50.137Z,1811.25
2018-07-14T10:26:49.976Z,1867.50
2018-07-14T10:27:50.000Z,1929.38
2018-07-14T10:28:50.023Z,1901.25
2018-07-14T10:29:50.035Z,1828.13
2018-07-14T10:30:50.082Z,1816.88
2018-07-14T10:31:50.085Z,1125.00
2018-07-14T10:32:50.092Z,984.38
2018-07-14T10:33:50.131Z,1203.75
2018-07-14T10:34:50.134Z,995.63
2018-07-14T10:35:50.156Z,967.50
2018-07-14T10:36:50.171Z,990.00
2018-07-14T10:37:50.197Z,1035.00
2018-07-14T10:38:50.257Z,1901.25
2018-07-14T10:39:50.233Z,1181.25
2018-07-14T10:40:50.254Z,1845.00
2018-07-14T10:41:50.266Z,1873.13
2018-07-14T10:42:50.292Z,1867.50
2018-07-14T10:43:50.307Z,1861.88
2018-07-14T10:44:50.324Z,1873.13
2018-07-14T10:45:50.346Z,1822.50
2018-07-14T10:46:50.452Z,1833.75
2018-07-14T10:47:50.390Z,1811.25
2018-07-14T10:48:50.404Z,1845.00
2018-07-14T10:49:50.420Z,1282.50
2018-07-14T10:50:50.454Z,956.25
2018-07-14T10:51:50.473Z,1861.88
2018-07-14T10:52:50.473Z,1833.75
2018-07-14T10:53:50.509Z,1873.13
2018-07-14T10:54:50.539Z,1873.13
2018-07-14T10:55:50.567Z,1890.00
2018-07-14T10:56:50.565Z,1861.88
2018-07-14T10:57:50.582Z,1861.88
2018-07-14T10:58:50.607Z,1861.88
2018-07-14T10:59:50.635Z,1957.50
2018-07-14T11:00:50.643Z,1985.63
2018-07-14T11:01:50.665Z,765.00
2018-07-14T11:02:50.687Z,978.75
2018-07-14T11:03:50.716Z,1833.75
2018-07-14T11:04:50.745Z,1873.13
2018-07-14T11:05:50.744Z,1822.50
2018-07-14T11:06:50.773Z,1530.00
2018-07-14T11:07:50.785Z,877.50
2018-07-14T11:08:50.801Z,905.63
2018-07-14T11:09:50.838Z,1141.88
2018-07-14T11:10:50.854Z,1096.88
2018-07-14T11:11:50.868Z,1546.88
2018-07-14T11:12:50.884Z,1541.25
2018-07-14T11:13:50.897Z,1681.88
2018-07-14T11:14:50.927Z,1856.25
2018-07-14T11:15:50.939Z,1873.13
2018-07-14T11:16:50.967Z,1957.50
2018-07-14T11:17:51.037Z,1968.75
2018-07-14T11:18:50.998Z,1946.25
2018-07-14T11:19:51.021Z,1918.13
2018-07-14T11:20:51.043Z,1850.63
2018-07-14T11:21:51.065Z,1895.63
2018-07-14T11:22:51.088Z,1665.00
2018-07-14T11:23:51.103Z,1614.38
2018-07-14T11:24:51.126Z,1198.13
2018-07-14T11:25:51.137Z,849.38
2018-07-14T11:26:51.175Z,770.63
2018-07-14T11:27:51.183Z,765.00
2018-07-14T11:28:51.247Z,883.13
2018-07-14T11:29:51.218Z,1749.38
2018-07-14T11:30:51.244Z,770.63
2018-07-14T11:31:51.257Z,742.50
2018-07-14T11:32:51.278Z,1192.50
2018-07-14T11:33:51.305Z,1968.75
2018-07-14T11:34:51.323Z,1890.00
2018-07-14T11:35:51.327Z,1923.75
2018-07-14T11:36:51.364Z,1895.63
2018-07-14T11:37:51.381Z,1906.88
2018-07-14T11:38:51.417Z,1940.63
2018-07-14T11:39:51.416Z,1951.88
2018-07-14T11:40:51.433Z,1873.13
2018-07-14T11:41:51.448Z,1878.75
2018-07-14T11:42:51.463Z,1935.00
2018-07-14T11:43:51.490Z,1096.88
2018-07-14T11:44:51.506Z,793.13
2018-07-14T11:45:51.524Z,922.50
2018-07-14T11:46:51.559Z,877.50
2018-07-14T11:47:51.586Z,804.38
2018-07-14T11:48:51.618Z,1383.75
2018-07-14T11:49:51.594Z,630.00
2018-07-14T11:50:51.619Z,596.25
2018-07-14T11:51:51.637Z,568.13
2018-07-14T11:52:51.659Z,585.00
2018-07-14T11:53:51.678Z,1918.13
2018-07-14T11:54:51.688Z,1940.63
2018-07-14T11:55:51.703Z,1518.75
2018-07-14T11:56:51.736Z,1901.25
2018-07-14T11:57:51.744Z,1845.00
2018-07-14T11:58:51.766Z,1856.25
2018-07-14T11:59:51.782Z,1293.75
2018-07-14T12:00:51.803Z,1158.75
2018-07-14T12:01:51.824Z,1231.88
2018-07-14T12:02:51.841Z,832.50
2018-07-14T12:03:51.852Z,945.00
2018-07-14T12:04:51.877Z,753.75
2018-07-14T12:05:51.894Z,2013.75
2018-07-14T12:06:51.919Z,1940.63
2018-07-14T12:07:51.943Z,894.38
2018-07-14T12:08:51.946Z,1715.63
2018-07-14T12:09:51.968Z,1951.88
2018-07-14T12:10:51.987Z,1985.63
2018-07-14T12:11:52.002Z,1974.38
2018-07-14T12:12:52.025Z,1929.38
2018-07-14T12:13:52.052Z,1867.50
2018-07-14T12:14:52.060Z,1878.75
2018-07-14T12:15:52.088Z,1884.38
2018-07-14T12:16:52.106Z,1935.00
2018-07-14T12:17:52.120Z,1569.38
2018-07-14T12:18:52.153Z,1828.13
2018-07-14T12:19:52.162Z,1226.25
2018-07-14T12:20:52.176Z,1361.25
2018-07-14T12:21:52.204Z,922.50
2018-07-14T12:22:52.223Z,765.00
2018-07-14T12:23:52.239Z,635.63
2018-07-14T12:24:52.259Z,658.13
2018-07-14T12:25:52.282Z,658.13
2018-07-14T12:26:52.427Z,714.38
2018-07-14T12:27:52.367Z,1816.88
2018-07-14T12:28:52.334Z,1096.88
2018-07-14T12:29:52.355Z,1918.13
2018-07-14T12:30:52.379Z,978.75
2018-07-14T12:31:52.391Z,1811.25
2018-07-14T12:32:52.411Z,1895.63
2018-07-14T12:33:52.427Z,1963.13
2018-07-14T12:34:52.448Z,1963.13
2018-07-14T12:35:52.471Z,1580.63
2018-07-14T12:36:52.488Z,1957.50
2018-07-14T12:37:52.507Z,1974.38
2018-07-14T12:38:52.560Z,1974.38
2018-07-14T12:39:52.548Z,1957.50
2018-07-14T12:40:52.589Z,1867.50
2018-07-14T12:41:52.593Z,1850.63
2018-07-14T12:42:52.660Z,1839.38
2018-07-14T12:43:52.629Z,1816.88
2018-07-14T12:44:52.651Z,1833.75
2018-07-14T12:45:52.667Z,1867.50
2018-07-14T12:46:52.692Z,1788.75
2018-07-14T12:47:52.740Z,1788.75
2018-07-14T12:48:52.738Z,1856.25
2018-07-14T12:49:52.753Z,1850.63
2018-07-14T12:50:52.776Z,1805.63
2018-07-14T12:51:52.801Z,1800.00
2018-07-14T12:52:52.820Z,1828.13
2018-07-14T12:53:52.911Z,1839.38
2018-07-14T12:54:52.865Z,1839.38
2018-07-14T12:55:52.892Z,1822.50
2018-07-14T12:56:52.908Z,1788.75
2018-07-14T12:57:52.930Z,1794.38
2018-07-14T12:58:52.960Z,1755.00
2018-07-14T12:59:52.993Z,1732.50
2018-07-14T13:00:53.014Z,1794.38
2018-07-14T13:01:53.024Z,1861.88
2018-07-14T13:02:53.057Z,1923.75